Hamburg, Louisiana
Current Conditions -  °F | °C
As of 11:15 AM on Friday 24 Oct 2014 (Local Time) from KOPL Reporting Station
Clear Clear  
Wind Chill: 65°   Ceiling: Unl
Heat Index: 65°   Visibility: 10mi
Dew Point: 52°   Wind: 3mph
Humidity: 63%   Direction: 30°NNE
Pressure: 30.16"   Gusts: NA
Location:  31.03°N, 91.93°W
Report Text: KOPL 241615Z AUTO 03003KT 10SM CLR 18/11 A3016 RMK AO2 T01840113
Loading
Personal Weather Stations






























Interactive Weather Map
Tropical Storm Tracking
New forecast layout! Learn more

10-Day Weather Forecast

Advertisements
Track Severe Weather on mobile